Time;durP1;ratioP1;P1;durP2;ratioP2;P2;SDS_P1;SDS_P2;PMS_P1;PMS_P2;Temp;Humidity;BMP_temperature;BMP_pressure;BME280_temperature;BME280_humidity;BME280_pressure;Samples;Min_cycle;Max_cycle;Signal;HPM_P1;HPM_P2
2023/06/12 00:02:20;;;;;;;3.13;2.53;;;23.50;40.10;;;;;;5071586;28;21200;-77
2023/06/12 00:04:45;;;;;;;4.07;2.53;;;23.40;40.20;;;;;;5036453;28;20169;-76
2023/06/12 00:07:12;;;;;;;4.10;3.10;;;23.30;40.20;;;;;;5019336;28;20661;-77
2023/06/12 00:09:38;;;;;;;3.50;2.80;;;23.30;40.40;;;;;;5053456;28;20260;-76
2023/06/12 00:12:05;;;;;;;9.60;3.43;;;23.20;40.50;;;;;;5043857;28;20592;-76
2023/06/12 00:14:30;;;;;;;5.10;3.70;;;23.10;40.60;;;;;;5035937;28;20642;-77
2023/06/12 00:16:56;;;;;;;4.93;2.70;;;23.00;40.70;;;;;;5053633;28;20633;-77
2023/06/12 00:19:22;;;;;;;5.20;3.27;;;22.90;40.90;;;;;;5035357;28;20181;-77
2023/06/12 00:21:47;;;;;;;4.30;2.90;;;22.90;41.00;;;;;;5035839;28;20173;-77
2023/06/12 00:24:13;;;;;;;3.30;2.73;;;22.80;41.00;;;;;;5035507;28;20540;-76
2023/06/12 00:26:39;;;;;;;4.13;2.87;;;22.70;41.10;;;;;;5035857;28;20601;-76
2023/06/12 00:29:05;;;;;;;4.50;3.23;;;22.70;41.20;;;;;;5035015;28;20326;-76
2023/06/12 00:31:30;;;;;;;3.47;2.70;;;22.60;41.30;;;;;;5045576;28;20648;-76
2023/06/12 00:33:56;;;;;;;7.10;3.57;;;22.50;41.40;;;;;;5033085;28;20194;-77
2023/06/12 00:36:22;;;;;;;3.47;2.80;;;22.50;41.50;;;;;;5040152;28;20735;-77
2023/06/12 00:38:48;;;;;;;4.23;3.07;;;22.40;41.50;;;;;;5055363;28;20168;-77
2023/06/12 00:41:15;;;;;;;5.03;3.53;;;22.40;41.60;;;;;;5073037;28;20986;-76
2023/06/12 00:43:40;;;;;;;4.90;3.07;;;22.30;41.80;;;;;;5038972;28;20693;-77
2023/06/12 00:46:06;;;;;;;4.67;3.17;;;22.30;41.90;;;;;;5055163;28;20283;-76
2023/06/12 00:48:33;;;;;;;3.47;2.90;;;22.20;42.00;;;;;;5055203;28;20640;-76
2023/06/12 00:50:59;;;;;;;6.80;3.60;;;22.20;42.10;;;;;;5072955;28;20251;-76
2023/06/12 00:53:26;;;;;;;4.27;3.30;;;22.20;42.20;;;;;;5054598;28;20840;-75
2023/06/12 00:55:53;;;;;;;3.83;3.20;;;22.10;42.30;;;;;;5021896;28;20611;-77
2023/06/12 00:58:19;;;;;;;4.67;3.60;;;22.10;42.40;;;;;;5054879;28;20574;-77
2023/06/12 01:00:47;;;;;;;4.00;3.60;;;22.10;42.50;;;;;;5054605;28;20172;-77
2023/06/12 01:03:14;;;;;;;5.00;3.87;;;22.00;42.60;;;;;;5038501;28;20180;-76
2023/06/12 01:05:46;;;;;;;5.10;3.37;;;22.00;42.70;;;;;;5044340;28;20642;-76
2023/06/12 01:08:34;;;;;;;4.07;3.23;;;21.90;43.00;;;;;;5026352;28;20588;-76
2023/06/12 01:11:11;;;;;;;4.33;3.33;;;21.90;43.00;;;;;;5036229;28;20619;-75
2023/06/12 01:13:38;;;;;;;4.53;4.10;;;21.80;43.30;;;;;;5035076;28;20639;-74
2023/06/12 01:16:05;;;;;;;4.50;3.20;;;21.70;43.00;;;;;;5032905;28;20642;-76
2023/06/12 01:18:32;;;;;;;3.60;3.00;;;21.70;43.20;;;;;;4997273;28;20269;-77
2023/06/12 01:21:05;;;;;;;5.37;2.90;;;21.70;43.40;;;;;;5029887;28;20593;-76
2023/06/12 01:23:39;;;;;;;3.97;2.70;;;21.60;43.60;;;;;;5015786;28;20603;-77
2023/06/12 01:26:34;;;;;;;4.57;3.17;;;21.50;43.60;;;;;;5013309;28;20675;-77
2023/06/12 01:29:00;;;;;;;3.80;3.30;;;21.50;44.10;;;;;;5013883;28;20639;-77
2023/06/12 01:31:43;;;;;;;4.47;3.20;;;21.40;43.70;;;;;;5057452;28;20974;-77
2023/06/12 01:34:20;;;;;;;4.47;3.40;;;21.40;44.10;;;;;;5047701;28;20647;-77
2023/06/12 01:37:05;;;;;;;7.90;3.83;;;21.30;44.10;;;;;;5036955;28;20658;-77
2023/06/12 01:39:44;;;;;;;5.43;3.50;;;21.30;44.20;;;;;;5004261;28;20589;-77
2023/06/12 01:42:10;;;;;;;4.10;3.47;;;21.20;44.40;;;;;;5036097;22;20702;-74
2023/06/12 01:44:37;;;;;;;4.90;2.93;;;21.20;44.40;;;;;;5005800;28;20608;-73
2023/06/12 01:47:03;;;;;;;4.53;3.20;;;21.20;44.60;;;;;;5013470;28;20587;-73
2023/06/12 01:49:30;;;;;;;4.50;3.47;;;21.10;44.60;;;;;;5028093;28;20186;-73
2023/06/12 01:51:55;;;;;;;4.40;3.40;;;21.10;44.80;;;;;;4989289;28;20708;-73
2023/06/12 01:54:22;;;;;;;4.60;3.80;;;21.10;45.00;;;;;;4975467;28;20745;-73
2023/06/12 01:56:49;;;;;;;3.80;3.10;;;21.00;45.10;;;;;;4990039;28;20552;-73
2023/06/12 01:59:16;;;;;;;4.20;3.80;;;21.00;45.30;;;;;;4995063;28;20592;-72
2023/06/12 02:01:45;;;;;;;7.03;3.70;;;21.00;45.50;;;;;;5020899;28;20655;-72
2023/06/12 02:04:12;;;;;;;5.37;4.40;;;20.90;45.50;;;;;;5029475;28;20572;-73
2023/06/12 02:06:37;;;;;;;4.10;3.70;;;20.90;45.70;;;;;;5028895;28;20589;-73
2023/06/12 02:09:04;;;;;;;4.73;3.97;;;20.90;45.80;;;;;;5012495;28;20584;-73
2023/06/12 02:11:31;;;;;;;3.73;3.00;;;20.80;45.90;;;;;;5012555;28;20609;-73
2023/06/12 02:13:57;;;;;;;5.73;4.33;;;20.80;46.00;;;;;;5029286;28;21115;-73
2023/06/12 02:16:23;;;;;;;4.50;3.70;;;20.80;46.00;;;;;;5027186;28;20679;-73
2023/06/12 02:18:51;;;;;;;4.33;3.33;;;20.80;46.10;;;;;;5008883;28;20182;-73
2023/06/12 02:21:17;;;;;;;5.17;3.73;;;20.80;46.10;;;;;;4992925;28;20614;-73
2023/06/12 02:23:43;;;;;;;4.17;3.20;;;20.80;46.20;;;;;;4992745;28;20589;-73
2023/06/12 02:26:10;;;;;;;4.57;3.57;;;20.70;46.30;;;;;;4993417;28;20233;-73
2023/06/12 02:28:42;;;;;;;4.73;3.93;;;20.70;46.40;;;;;;4992013;28;20597;-72
2023/06/12 02:31:08;;;;;;;4.90;4.00;;;20.70;46.70;;;;;;5008456;28;20724;-73
2023/06/12 02:33:37;;;;;;;5.37;3.37;;;20.70;46.70;;;;;;5008020;28;20649;-72
2023/06/12 02:36:07;;;;;;;4.13;3.63;;;20.70;46.80;;;;;;5004673;28;20628;-73
2023/06/12 02:38:34;;;;;;;4.97;3.73;;;20.60;46.90;;;;;;5024818;28;20585;-73
2023/06/12 02:41:01;;;;;;;6.20;4.43;;;20.60;47.00;;;;;;4992145;28;20625;-73
2023/06/12 02:43:26;;;;;;;4.77;3.83;;;20.60;47.20;;;;;;5008604;28;20986;-73
2023/06/12 02:45:52;;;;;;;5.00;3.67;;;20.60;47.30;;;;;;5009396;28;20677;-73
2023/06/12 02:48:19;;;;;;;8.03;4.17;;;20.60;47.50;;;;;;5008447;28;20228;-72
2023/06/12 02:50:44;;;;;;;5.73;4.40;;;20.50;47.50;;;;;;5008502;28;20625;-73
2023/06/12 02:53:11;;;;;;;4.30;3.90;;;20.50;47.70;;;;;;5008879;28;20206;-73
2023/06/12 02:55:39;;;;;;;5.00;3.90;;;20.50;47.80;;;;;;4992182;28;20605;-73
2023/06/12 02:58:07;;;;;;;4.97;4.07;;;20.50;47.90;;;;;;5008543;28;21433;-73
2023/06/12 03:00:33;;;;;;;6.00;4.20;;;20.40;48.00;;;;;;5008489;28;20596;-73
2023/06/12 03:02:59;;;;;;;4.10;3.63;;;20.40;48.10;;;;;;4991735;28;20589;-72
2023/06/12 03:05:26;;;;;;;4.40;4.00;;;20.40;48.20;;;;;;4991970;28;20208;-73
2023/06/12 03:07:54;;;;;;;4.73;3.80;;;20.40;48.40;;;;;;4992529;28;20585;-72
2023/06/12 03:10:20;;;;;;;5.47;4.13;;;20.40;48.40;;;;;;4991309;28;20704;-73
2023/06/12 03:12:46;;;;;;;8.83;4.60;;;20.30;48.40;;;;;;4992124;28;20648;-73
2023/06/12 03:15:16;;;;;;;5.87;4.00;;;20.30;48.50;;;;;;5008840;28;20228;-72
2023/06/12 03:17:42;;;;;;;9.93;3.87;;;20.30;48.70;;;;;;4993824;28;20188;-72
2023/06/12 03:20:09;;;;;;;4.07;3.67;;;20.30;48.90;;;;;;5012182;28;21060;-73
2023/06/12 03:22:35;;;;;;;6.00;3.83;;;20.20;49.10;;;;;;4995704;28;20620;-73
2023/06/12 03:25:01;;;;;;;7.07;4.47;;;20.20;49.20;;;;;;4996351;28;21073;-73
2023/06/12 03:27:29;;;;;;;4.40;3.60;;;20.20;49.20;;;;;;4995405;28;20217;-73
2023/06/12 03:29:56;;;;;;;6.03;4.10;;;20.20;49.30;;;;;;5011612;28;20565;-73
2023/06/12 03:32:22;;;;;;;5.43;3.63;;;20.20;49.50;;;;;;4994371;28;20621;-73
2023/06/12 03:34:54;;;;;;;5.63;3.70;;;20.20;49.60;;;;;;5012367;28;20593;-73
2023/06/12 03:37:21;;;;;;;4.50;3.80;;;20.20;49.60;;;;;;5012115;28;20568;-73
2023/06/12 03:39:47;;;;;;;6.20;4.57;;;20.20;49.70;;;;;;5031277;28;21139;-74
2023/06/12 03:42:13;;;;;;;7.17;4.40;;;20.20;49.70;;;;;;5031792;28;20685;-74
2023/06/12 03:44:47;;;;;;;4.47;3.90;;;20.20;49.80;;;;;;5031890;28;20239;-74
2023/06/12 03:47:14;;;;;;;5.03;4.10;;;20.20;49.80;;;;;;5032018;28;20585;-74
2023/06/12 03:49:41;;;;;;;5.07;3.67;;;20.20;49.90;;;;;;5031079;28;20232;-74
2023/06/12 03:52:07;;;;;;;6.03;3.97;;;20.20;50.00;;;;;;5006523;28;20633;-74
2023/06/12 03:54:33;;;;;;;5.10;3.70;;;20.20;50.00;;;;;;5002910;28;20678;-74
2023/06/12 03:56:59;;;;;;;7.30;3.77;;;20.30;50.10;;;;;;5012192;28;20669;-74
2023/06/12 03:59:25;;;;;;;5.63;3.87;;;20.20;50.10;;;;;;5010888;28;20332;-74
2023/06/12 04:01:52;;;;;;;4.93;4.07;;;20.30;50.20;;;;;;5012716;28;20686;-75
2023/06/12 04:04:18;;;;;;;5.77;3.60;;;20.30;50.40;;;;;;4995555;28;20324;-74
2023/06/12 04:06:45;;;;;;;6.07;4.70;;;20.30;50.40;;;;;;5011735;28;20685;-76
2023/06/12 04:09:15;;;;;;;3.57;3.27;;;20.40;50.60;;;;;;4994620;28;20193;-75
2023/06/12 04:11:46;;;;;;;5.00;4.17;;;20.40;50.60;;;;;;4995739;28;20624;-74
2023/06/12 04:14:12;;;;;;;5.43;3.33;;;20.50;50.60;;;;;;5010011;28;20653;-76
2023/06/12 04:16:38;;;;;;;4.30;3.90;;;20.60;50.70;;;;;;5018431;28;20618;-78
2023/06/12 04:19:05;;;;;;;4.30;3.17;;;20.70;50.70;;;;;;4975410;28;20586;-78
2023/06/12 04:21:33;;;;;;;5.13;4.23;;;20.70;50.60;;;;;;5001673;28;20628;-78
2023/06/12 04:24:02;;;;;;;3.90;3.20;;;20.80;50.70;;;;;;5028092;28;21244;-78
2023/06/12 04:26:28;;;;;;;6.27;3.43;;;21.00;51.00;;;;;;4994940;28;20577;-78
2023/06/12 04:28:56;;;;;;;4.10;2.90;;;21.20;51.40;;;;;;5009615;28;20597;-77
2023/06/12 04:31:23;;;;;;;4.00;3.43;;;21.40;51.50;;;;;;5011353;28;21059;-78
2023/06/12 04:33:51;;;;;;;3.80;3.27;;;21.60;51.30;;;;;;5010901;28;20767;-77
2023/06/12 04:36:18;;;;;;;4.30;3.70;;;21.80;51.80;;;;;;5019247;28;20642;-77
2023/06/12 04:38:45;;;;;;;3.53;2.77;;;22.00;51.20;;;;;;5031379;28;20572;-78
2023/06/12 04:41:11;;;;;;;4.20;3.73;;;22.10;51.00;;;;;;5014267;28;20624;-78
2023/06/12 04:43:37;;;;;;;4.97;3.43;;;22.30;51.00;;;;;;5014248;28;20580;-78
2023/06/12 04:46:02;;;;;;;3.77;3.40;;;22.40;50.80;;;;;;5031793;28;20575;-78
2023/06/12 04:48:28;;;;;;;5.23;4.20;;;22.50;50.70;;;;;;5033712;28;20182;-78
2023/06/12 04:50:54;;;;;;;4.20;3.60;;;22.60;50.60;;;;;;5030522;28;20711;-78
2023/06/12 04:53:30;;;;;;;5.47;3.47;;;22.80;50.70;;;;;;5030585;28;20201;-79
2023/06/12 04:55:57;;;;;;;5.23;4.23;;;23.00;51.10;;;;;;5031051;28;20637;-78
2023/06/12 04:58:23;;;;;;;4.07;3.33;;;23.20;51.00;;;;;;5030054;28;20580;-78
2023/06/12 05:00:50;;;;;;;3.80;3.40;;;23.30;50.70;;;;;;5030188;28;20604;-78
2023/06/12 05:03:20;;;;;;;4.70;3.30;;;23.30;50.50;;;;;;5030713;28;20647;-78
2023/06/12 05:05:46;;;;;;;5.17;3.77;;;23.40;50.40;;;;;;5030172;28;20588;-79
2023/06/12 05:08:13;;;;;;;4.87;3.50;;;23.50;50.50;;;;;;5030063;28;20943;-78
2023/06/12 05:10:40;;;;;;;3.40;3.10;;;23.60;50.60;;;;;;5013501;28;20611;-79
2023/06/12 05:13:07;;;;;;;4.30;3.90;;;23.70;50.40;;;;;;5030022;28;20644;-78
2023/06/12 05:15:33;;;;;;;5.13;4.63;;;23.90;50.50;;;;;;5030062;28;20687;-78
2023/06/12 05:18:00;;;;;;;4.03;3.63;;;24.10;50.40;;;;;;5030650;28;20679;-78
2023/06/12 05:20:27;;;;;;;3.60;3.20;;;24.10;50.00;;;;;;5029546;28;20623;-78
2023/06/12 05:22:53;;;;;;;16.03;3.70;;;24.20;49.80;;;;;;5030354;28;20584;-78
2023/06/12 05:25:19;;;;;;;6.00;4.47;;;24.20;49.70;;;;;;5015407;28;20186;-78
2023/06/12 05:27:46;;;;;;;3.60;3.30;;;24.30;49.70;;;;;;5002054;28;20981;-78
2023/06/12 05:30:12;;;;;;;8.00;4.20;;;24.30;49.60;;;;;;5003567;28;20594;-78
2023/06/12 05:32:37;;;;;;;5.17;3.90;;;24.30;49.50;;;;;;4973872;28;20222;-78
2023/06/12 05:35:05;;;;;;;8.43;3.73;;;24.20;50.00;;;;;;4996464;28;20602;-77
2023/06/12 05:37:30;;;;;;;4.47;4.03;;;24.20;49.50;;;;;;5013094;28;20592;-78
2023/06/12 05:39:57;;;;;;;8.40;3.57;;;24.30;49.60;;;;;;5012864;28;20650;-78
2023/06/12 05:42:23;;;;;;;5.30;3.53;;;24.30;49.50;;;;;;5012396;28;20746;-78
2023/06/12 05:44:50;;;;;;;5.07;3.93;;;24.40;49.60;;;;;;5013663;28;20627;-79
2023/06/12 05:47:16;;;;;;;4.37;3.73;;;24.40;49.60;;;;;;5029734;28;20616;-79
2023/06/12 05:49:42;;;;;;;5.70;3.47;;;24.50;49.60;;;;;;5029889;28;20608;-78
2023/06/12 05:52:08;;;;;;;4.03;3.50;;;24.50;49.50;;;;;;5029669;28;20198;-78
2023/06/12 05:54:35;;;;;;;8.47;3.63;;;24.70;50.40;;;;;;5031090;28;20664;-78
2023/06/12 05:57:01;;;;;;;3.60;3.30;;;24.90;50.30;;;;;;5013193;28;20619;-78
2023/06/12 05:59:29;;;;;;;4.50;3.57;;;25.40;50.70;;;;;;5031042;28;20642;-79
2023/06/12 06:01:56;;;;;;;5.20;3.50;;;26.00;50.90;;;;;;5016317;28;20608;-78
2023/06/12 06:04:22;;;;;;;4.80;3.53;;;26.70;50.70;;;;;;5012787;28;20181;-78
2023/06/12 06:06:48;;;;;;;7.20;3.17;;;27.30;50.30;;;;;;5013010;28;21046;-78
2023/06/12 06:09:17;;;;;;;5.43;3.80;;;28.00;49.10;;;;;;5028668;28;20633;-77
2023/06/12 06:11:45;;;;;;;4.30;3.07;;;28.60;49.50;;;;;;5029088;28;20667;-78
2023/06/12 06:14:12;;;;;;;6.10;3.87;;;29.50;49.10;;;;;;5029144;28;20976;-78
2023/06/12 06:16:38;;;;;;;5.47;3.00;;;30.10;48.60;;;;;;5013074;28;20587;-77
2023/06/12 06:19:05;;;;;;;5.70;3.10;;;30.70;48.20;;;;;;5029944;28;20581;-76
2023/06/12 06:21:31;;;;;;;5.27;3.40;;;31.30;47.80;;;;;;4994704;28;20248;-75
2023/06/12 06:23:57;;;;;;;3.63;3.10;;;31.70;45.70;;;;;;5002497;28;20603;-76
2023/06/12 06:26:23;;;;;;;4.70;3.10;;;32.20;46.30;;;;;;5007616;28;20603;-75
2023/06/12 06:28:49;;;;;;;4.70;3.13;;;32.70;44.30;;;;;;5008914;28;20168;-76
2023/06/12 06:31:15;;;;;;;6.93;3.77;;;33.00;43.90;;;;;;5025048;28;20191;-76
2023/06/12 06:33:40;;;;;;;3.40;2.90;;;33.00;42.90;;;;;;5002187;28;20202;-75
2023/06/12 06:36:06;;;;;;;3.73;2.37;;;32.90;41.80;;;;;;5009985;28;20251;-75
2023/06/12 06:38:32;;;;;;;4.20;3.10;;;32.80;42.10;;;;;;5012362;28;20176;-76
2023/06/12 06:40:59;;;;;;;4.40;2.60;;;32.60;41.50;;;;;;5029197;28;20631;-76
2023/06/12 06:43:27;;;;;;;3.00;2.70;;;32.70;42.60;;;;;;5011633;28;20258;-75
2023/06/12 06:45:58;;;;;;;6.13;3.17;;;33.10;42.60;;;;;;5028410;28;20974;-76
2023/06/12 06:48:24;;;;;;;5.43;3.30;;;33.10;41.80;;;;;;5012467;28;20952;-75
2023/06/12 06:50:51;;;;;;;4.93;2.60;;;33.30;41.70;;;;;;5027550;28;20664;-75
2023/06/12 06:53:18;;;;;;;4.50;2.80;;;33.50;41.30;;;;;;5026505;28;20635;-74
2023/06/12 06:55:46;;;;;;;4.10;3.23;;;33.50;40.30;;;;;;5028508;28;20584;-75
2023/06/12 06:58:13;;;;;;;3.63;2.70;;;33.70;40.60;;;;;;5027694;28;20587;-75
2023/06/12 07:00:40;;;;;;;6.37;2.57;;;33.80;40.10;;;;;;5012316;28;20617;-76
2023/06/12 07:03:06;;;;;;;3.80;3.40;;;33.60;39.70;;;;;;5027649;28;20585;-75
2023/06/12 07:05:32;;;;;;;3.97;3.23;;;33.50;39.20;;;;;;5027755;28;20178;-75
2023/06/12 07:07:58;;;;;;;4.13;3.20;;;33.50;39.30;;;;;;5028577;28;20544;-75
2023/06/12 07:10:25;;;;;;;4.43;2.90;;;33.50;39.00;;;;;;5027359;28;21138;-76
2023/06/12 07:12:56;;;;;;;4.73;2.70;;;33.30;39.20;;;;;;5030325;28;20689;-75
2023/06/12 07:15:27;;;;;;;4.20;3.10;;;33.40;39.20;;;;;;5012967;28;20579;-76
2023/06/12 07:17:54;;;;;;;4.70;3.23;;;33.50;39.00;;;;;;5009075;28;20616;-76
2023/06/12 07:20:20;;;;;;;3.90;2.90;;;33.70;39.50;;;;;;4985041;28;20647;-76
2023/06/12 07:22:46;;;;;;;3.77;3.10;;;33.80;39.40;;;;;;4975480;28;20186;-76
2023/06/12 07:25:14;;;;;;;3.40;3.00;;;34.00;38.70;;;;;;5009136;28;21100;-76
2023/06/12 07:27:39;;;;;;;2.97;2.77;;;34.10;39.20;;;;;;5008379;28;21002;-76
2023/06/12 07:30:06;;;;;;;4.20;3.63;;;34.20;38.90;;;;;;5007450;28;20592;-76
2023/06/12 07:32:32;;;;;;;3.20;2.83;;;34.10;38.20;;;;;;5008748;28;20210;-76
2023/06/12 07:34:58;;;;;;;3.50;2.60;;;34.00;38.00;;;;;;5016021;28;20593;-76
2023/06/12 07:37:24;;;;;;;3.47;2.80;;;33.80;37.90;;;;;;5005211;28;20195;-75
2023/06/12 07:39:51;;;;;;;3.30;2.90;;;33.80;38.00;;;;;;5007568;28;20193;-75
2023/06/12 07:42:17;;;;;;;3.20;2.93;;;33.90;38.20;;;;;;4991157;28;20619;-75
2023/06/12 07:44:44;;;;;;;3.60;3.20;;;34.00;38.40;;;;;;5024243;28;20607;-79
2023/06/12 07:47:11;;;;;;;4.33;2.90;;;34.20;38.40;;;;;;5011010;28;20584;-78
2023/06/12 07:49:36;;;;;;;3.27;2.97;;;34.40;38.50;;;;;;5030762;28;20582;-79
2023/06/12 07:52:02;;;;;;;3.80;3.17;;;34.50;37.90;;;;;;5029921;28;20204;-78
2023/06/12 07:54:28;;;;;;;3.70;3.00;;;34.90;38.00;;;;;;5026823;28;20214;-79
2023/06/12 07:56:54;;;;;;;3.70;2.30;;;35.40;38.50;;;;;;5028082;28;21115;-79
2023/06/12 07:59:20;;;;;;;3.10;2.63;;;36.10;38.90;;;;;;5010948;28;20173;-79
2023/06/12 08:01:58;;;;;;;5.70;2.80;;;36.80;38.70;;;;;;5027619;28;20634;-79
2023/06/12 08:04:24;;;;;;;3.33;2.60;;;37.40;38.10;;;;;;5030072;28;21103;-79
2023/06/12 08:06:50;;;;;;;3.33;3.03;;;37.60;37.10;;;;;;5014767;28;20588;-78
2023/06/12 08:09:20;;;;;;;7.23;4.47;;;37.70;35.90;;;;;;5014469;28;20182;-78
2023/06/12 08:11:46;;;;;;;3.43;3.13;;;37.40;34.80;;;;;;5014323;28;20628;-77
2023/06/12 08:14:12;;;;;;;2.80;2.60;;;37.30;35.10;;;;;;5011890;28;20743;-77
2023/06/12 08:16:40;;;;;;;2.70;2.50;;;37.50;35.40;;;;;;5004050;28;20697;-77
2023/06/12 08:19:06;;;;;;;2.83;2.63;;;37.60;35.40;;;;;;5003989;28;20186;-77
2023/06/12 08:21:34;;;;;;;3.33;3.07;;;37.80;35.30;;;;;;4998489;28;21171;-78
2023/06/12 08:24:00;;;;;;;3.33;3.00;;;38.10;35.90;;;;;;5031237;28;20599;-78
2023/06/12 08:26:26;;;;;;;2.97;2.70;;;38.60;36.00;;;;;;5017619;28;20606;-77
2023/06/12 08:28:53;;;;;;;2.93;2.63;;;38.80;34.60;;;;;;4991617;28;20183;-77
2023/06/12 08:31:21;;;;;;;7.10;3.30;;;38.90;34.30;;;;;;4995413;28;21492;-78
2023/06/12 08:33:47;;;;;;;3.30;3.00;;;39.00;33.70;;;;;;5010731;28;20635;-77
2023/06/12 08:36:13;;;;;;;3.97;2.67;;;39.10;34.00;;;;;;5011921;28;20771;-77
2023/06/12 08:38:39;;;;;;;4.13;3.73;;;39.50;34.80;;;;;;5009683;28;20553;-77
2023/06/12 08:41:06;;;;;;;3.40;3.00;;;39.70;33.10;;;;;;5010428;28;20657;-78
2023/06/12 08:43:33;;;;;;;3.60;2.87;;;39.50;33.00;;;;;;5009999;28;20612;-78
2023/06/12 08:46:06;;;;;;;14.30;3.50;;;39.70;33.30;;;;;;5011092;28;20178;-78
2023/06/12 08:48:32;;;;;;;3.10;2.43;;;39.90;34.40;;;;;;4993101;28;20597;-77
2023/06/12 08:51:01;;;;;;;4.00;2.87;;;40.40;34.20;;;;;;5010999;28;20635;-78
2023/06/12 08:53:27;;;;;;;4.10;2.70;;;40.70;35.10;;;;;;5027128;28;21283;-77
2023/06/12 08:55:55;;;;;;;5.93;3.47;;;41.00;33.40;;;;;;5010174;28;20628;-77
2023/06/12 08:58:21;;;;;;;2.77;2.57;;;41.00;32.50;;;;;;4993721;28;20585;-77
2023/06/12 09:00:47;;;;;;;2.53;2.17;;;40.90;32.00;;;;;;5002285;28;20641;-78
2023/06/12 09:03:14;;;;;;;2.40;2.13;;;40.80;32.10;;;;;;5015642;28;20601;-78
2023/06/12 09:05:40;;;;;;;3.97;3.57;;;40.60;31.50;;;;;;5011431;28;20204;-77
2023/06/12 09:08:06;;;;;;;3.17;2.53;;;40.30;31.50;;;;;;4993735;28;20779;-77
2023/06/12 09:10:33;;;;;;;3.80;2.40;;;40.10;31.40;;;;;;5009924;28;21279;-77
2023/06/12 09:13:04;;;;;;;2.80;2.60;;;39.90;31.50;;;;;;5011014;28;21180;-77
2023/06/12 09:15:30;;;;;;;2.93;2.73;;;39.90;31.20;;;;;;5009972;28;20589;-78
2023/06/12 09:17:56;;;;;;;3.27;2.80;;;39.50;31.20;;;;;;5009929;28;20596;-77
2023/06/12 09:20:33;;;;;;;2.87;2.57;;;39.30;31.60;;;;;;5010067;28;20182;-77
2023/06/12 09:23:04;;;;;;;3.57;3.00;;;39.10;31.50;;;;;;5010663;28;20335;-77
2023/06/12 09:25:37;;;;;;;2.87;2.47;;;38.90;31.70;;;;;;5011188;28;20573;-77
2023/06/12 09:28:04;;;;;;;4.27;3.03;;;39.10;32.00;;;;;;5010777;28;20738;-77
2023/06/12 09:30:37;;;;;;;2.70;2.40;;;39.10;32.00;;;;;;5011462;28;20577;-77
2023/06/12 09:33:03;;;;;;;3.40;2.40;;;39.20;31.30;;;;;;5011127;28;20588;-77
2023/06/12 09:35:29;;;;;;;4.00;3.23;;;39.10;30.90;;;;;;5004033;28;20598;-77
2023/06/12 09:37:57;;;;;;;4.37;3.37;;;38.70;30.40;;;;;;5031304;28;20165;-77
2023/06/12 09:40:24;;;;;;;3.90;2.73;;;38.30;30.30;;;;;;5030705;28;20181;-77
2023/06/12 09:42:50;;;;;;;2.70;2.40;;;37.90;30.60;;;;;;5030557;28;20635;-77
2023/06/12 09:45:17;;;;;;;3.20;3.00;;;37.50;30.50;;;;;;5029218;28;20588;-77
2023/06/12 09:47:45;;;;;;;3.90;2.47;;;37.10;30.70;;;;;;5029645;28;20569;-75
2023/06/12 09:50:12;;;;;;;4.00;2.97;;;36.90;31.10;;;;;;5028618;28;21119;-76
2023/06/12 09:52:43;;;;;;;4.33;3.17;;;36.70;31.30;;;;;;5028916;28;21168;-75
2023/06/12 09:55:15;;;;;;;2.97;2.63;;;36.50;31.60;;;;;;5030476;28;21139;-75
2023/06/12 09:57:43;;;;;;;3.40;3.10;;;36.30;31.70;;;;;;5030221;28;20635;-75
2023/06/12 10:00:11;;;;;;;3.50;3.20;;;36.10;32.20;;;;;;5026957;28;20601;-75
2023/06/12 10:02:43;;;;;;;3.73;2.63;;;36.20;32.70;;;;;;5008545;28;20617;-75
2023/06/12 10:05:17;;;;;;;3.00;2.70;;;36.40;33.10;;;;;;5004637;28;20630;-75
2023/06/12 10:07:53;;;;;;;2.80;2.60;;;36.70;33.10;;;;;;5008255;28;21036;-75
2023/06/12 10:10:20;;;;;;;5.40;3.50;;;36.90;32.50;;;;;;5010129;28;20938;-77
2023/06/12 10:12:46;;;;;;;2.93;2.40;;;36.90;32.20;;;;;;5010247;28;20581;-76
2023/06/12 10:15:13;;;;;;;3.93;2.73;;;37.00;32.30;;;;;;5009256;28;20664;-76
2023/06/12 10:17:42;;;;;;;3.43;2.90;;;37.30;32.90;;;;;;5007282;28;20186;-75
2023/06/12 10:20:12;;;;;;;6.47;3.77;;;37.70;33.20;;;;;;4988975;28;20594;-76
2023/06/12 10:22:41;;;;;;;2.53;2.33;;;38.10;31.90;;;;;;4989335;28;21173;-76
2023/06/12 10:25:09;;;;;;;4.13;2.97;;;38.10;31.10;;;;;;4991208;28;20977;-75
2023/06/12 10:27:37;;;;;;;3.90;3.40;;;38.10;30.80;;;;;;5008098;28;20570;-76
2023/06/12 10:30:04;;;;;;;2.33;2.10;;;37.80;30.70;;;;;;5009496;28;20558;-79
2023/06/12 10:32:33;;;;;;;3.20;2.90;;;37.80;31.20;;;;;;5009883;28;20596;-76
2023/06/12 10:35:01;;;;;;;4.43;3.00;;;37.80;30.50;;;;;;5008976;28;20593;-76
2023/06/12 10:37:33;;;;;;;3.27;2.97;;;37.80;30.50;;;;;;5025656;28;20611;-77
2023/06/12 10:40:10;;;;;;;3.13;2.80;;;37.80;30.30;;;;;;5028036;28;20674;-76
2023/06/12 10:42:54;;;;;;;4.00;2.80;;;37.70;30.60;;;;;;5028800;28;20714;-75
2023/06/12 10:45:27;;;;;;;3.40;2.90;;;37.60;30.50;;;;;;4990791;28;21185;-76
2023/06/12 10:48:11;;;;;;;4.70;2.90;;;37.40;30.30;;;;;;4990123;28;21024;-77
2023/06/12 10:50:44;;;;;;;3.30;3.00;;;37.30;30.10;;;;;;4989552;28;20566;-76
2023/06/12 10:53:13;;;;;;;3.30;3.00;;;37.40;31.10;;;;;;4992329;28;20629;-76
2023/06/12 10:55:41;;;;;;;2.47;2.27;;;37.40;30.60;;;;;;5000040;28;20592;-76
2023/06/12 10:58:12;;;;;;;3.33;2.70;;;37.30;30.30;;;;;;5007912;28;20597;-76
2023/06/12 11:00:51;;;;;;;4.17;3.00;;;37.20;30.10;;;;;;5010155;28;20586;-76
2023/06/12 11:03:28;;;;;;;5.03;3.13;;;37.20;30.70;;;;;;5006390;28;20645;-77
2023/06/12 11:06:05;;;;;;;3.30;3.00;;;37.40;30.60;;;;;;5010105;28;20596;-76
2023/06/12 11:08:31;;;;;;;4.93;2.73;;;37.40;30.70;;;;;;5009800;28;20596;-76
2023/06/12 11:10:57;;;;;;;3.23;2.93;;;37.80;31.50;;;;;;5009611;28;20654;-76
2023/06/12 11:13:26;;;;;;;3.20;2.80;;;38.10;30.90;;;;;;5017345;28;20751;-76
2023/06/12 11:15:53;;;;;;;2.60;2.40;;;38.20;30.10;;;;;;5028914;28;20572;-76
2023/06/12 11:18:19;;;;;;;3.20;2.90;;;37.90;29.90;;;;;;5029058;28;20571;-76
2023/06/12 11:20:55;;;;;;;3.30;2.70;;;37.80;29.90;;;;;;5029042;28;20593;-77
2023/06/12 11:23:26;;;;;;;3.40;2.83;;;37.50;30.00;;;;;;5028585;28;20620;-79
2023/06/12 11:25:59;;;;;;;3.30;3.00;;;37.30;30.00;;;;;;5028455;28;20572;-79
2023/06/12 11:28:27;;;;;;;3.47;2.80;;;37.30;30.00;;;;;;5029287;28;20626;-78
2023/06/12 11:30:54;;;;;;;4.73;2.90;;;37.20;29.80;;;;;;5028964;28;20620;-79
2023/06/12 11:33:20;;;;;;;5.13;2.13;;;37.00;29.70;;;;;;5027482;28;20927;-79
2023/06/12 11:35:48;;;;;;;4.90;2.20;;;36.80;29.70;;;;;;5018305;28;21006;-77
2023/06/12 11:38:16;;;;;;;3.30;3.00;;;36.70;30.00;;;;;;5027636;28;20657;-77
2023/06/12 11:40:43;;;;;;;2.97;2.77;;;36.70;30.10;;;;;;5014557;28;20707;-75
2023/06/12 11:43:09;;;;;;;3.50;2.73;;;36.70;30.20;;;;;;5026200;28;20739;-76
2023/06/12 11:45:41;;;;;;;4.20;2.90;;;36.80;30.30;;;;;;5026566;28;21165;-75
2023/06/12 11:48:13;;;;;;;4.37;3.40;;;36.70;30.00;;;;;;5015338;28;20589;-75
2023/06/12 11:50:47;;;;;;;3.93;3.10;;;36.60;30.10;;;;;;5011357;28;20620;-75
2023/06/12 11:53:13;;;;;;;3.00;2.70;;;36.60;30.40;;;;;;5011755;28;21139;-75
2023/06/12 11:55:39;;;;;;;3.90;3.00;;;36.80;30.90;;;;;;5012922;28;20580;-75
2023/06/12 11:58:05;;;;;;;3.70;2.63;;;37.10;30.90;;;;;;5007417;28;20637;-76
2023/06/12 12:00:33;;;;;;;3.50;3.20;;;37.00;30.50;;;;;;5011368;28;20217;-75
2023/06/12 12:03:02;;;;;;;5.00;3.03;;;37.00;30.20;;;;;;5011770;28;20763;-75
2023/06/12 12:05:34;;;;;;;6.53;3.70;;;36.90;30.50;;;;;;5012714;28;20589;-75
2023/06/12 12:08:03;;;;;;;3.60;3.13;;;36.90;30.10;;;;;;5012135;28;20568;-75
2023/06/12 12:10:30;;;;;;;3.20;2.90;;;36.80;30.20;;;;;;5012955;28;20582;-75
2023/06/12 12:13:06;;;;;;;4.30;3.63;;;36.70;30.20;;;;;;5003510;28;20609;-76
2023/06/12 12:15:35;;;;;;;3.80;3.50;;;36.60;30.20;;;;;;5011668;28;20585;-75
2023/06/12 12:18:01;;;;;;;4.50;4.10;;;36.50;30.00;;;;;;5011334;28;20941;-75
2023/06/12 12:20:30;;;;;;;3.43;3.13;;;36.40;30.10;;;;;;5012320;28;20573;-76
2023/06/12 12:23:00;;;;;;;3.20;2.90;;;36.10;30.30;;;;;;5012127;28;20632;-76
2023/06/12 12:25:31;;;;;;;4.27;2.87;;;36.00;30.70;;;;;;5012635;28;20619;-76
2023/06/12 12:28:03;;;;;;;4.07;3.73;;;36.00;31.00;;;;;;5010608;28;20635;-75
2023/06/12 12:30:30;;;;;;;3.43;3.13;;;36.00;30.90;;;;;;5007900;28;20655;-75
2023/06/12 12:32:59;;;;;;;3.80;3.50;;;35.90;30.30;;;;;;4991423;28;20680;-76
2023/06/12 12:35:26;;;;;;;3.80;2.60;;;35.70;30.10;;;;;;5001263;28;20589;-75
2023/06/12 12:37:54;;;;;;;3.13;2.70;;;35.60;30.50;;;;;;5030840;28;20616;-75
2023/06/12 12:40:23;;;;;;;4.33;3.70;;;35.50;30.50;;;;;;5030668;28;20568;-76
2023/06/12 12:42:50;;;;;;;3.13;2.83;;;35.40;30.50;;;;;;5036006;28;21005;-76
2023/06/12 12:45:17;;;;;;;4.10;2.93;;;35.40;30.70;;;;;;5030655;28;20599;-75
2023/06/12 12:47:51;;;;;;;5.10;2.80;;;35.40;30.60;;;;;;5030580;28;20588;-75
2023/06/12 12:50:18;;;;;;;5.10;4.03;;;35.30;30.70;;;;;;5030355;28;20583;-75
2023/06/12 12:52:44;;;;;;;3.10;2.80;;;35.20;30.60;;;;;;5007278;28;20654;-75